sensor_id;sensor_type;location;lat;lon;timestamp;P1;durP1;ratioP1;P2;durP2;ratioP2
14358;SDS011;7263;49.418;11.064;2022-09-25T00:01:46;21.47;;;19.27;;
14358;SDS011;7263;49.418;11.064;2022-09-25T00:04:13;25.03;;;22.33;;
14358;SDS011;7263;49.418;11.064;2022-09-25T00:06:40;23.17;;;20.80;;
14358;SDS011;7263;49.418;11.064;2022-09-25T00:09:07;23.57;;;21.20;;
14358;SDS011;7263;49.418;11.064;2022-09-25T00:11:36;22.97;;;20.20;;
14358;SDS011;7263;49.418;11.064;2022-09-25T00:14:03;24.23;;;21.73;;
14358;SDS011;7263;49.418;11.064;2022-09-25T00:16:30;24.20;;;21.23;;
14358;SDS011;7263;49.418;11.064;2022-09-25T00:18:58;22.90;;;20.47;;
14358;SDS011;7263;49.418;11.064;2022-09-25T00:21:43;24.90;;;21.13;;
14358;SDS011;7263;49.418;11.064;2022-09-25T00:24:11;24.30;;;21.80;;
14358;SDS011;7263;49.418;11.064;2022-09-25T00:26:41;25.03;;;22.23;;
14358;SDS011;7263;49.418;11.064;2022-09-25T00:29:08;24.57;;;21.97;;
14358;SDS011;7263;49.418;11.064;2022-09-25T00:31:40;26.57;;;22.30;;
14358;SDS011;7263;49.418;11.064;2022-09-25T00:34:08;27.83;;;22.73;;
14358;SDS011;7263;49.418;11.064;2022-09-25T00:36:35;26.90;;;23.83;;
14358;SDS011;7263;49.418;11.064;2022-09-25T00:39:02;27.50;;;24.60;;
14358;SDS011;7263;49.418;11.064;2022-09-25T00:41:29;25.50;;;22.90;;
14358;SDS011;7263;49.418;11.064;2022-09-25T00:43:58;27.70;;;24.70;;
14358;SDS011;7263;49.418;11.064;2022-09-25T00:46:27;29.27;;;25.07;;
14358;SDS011;7263;49.418;11.064;2022-09-25T00:48:58;26.50;;;23.60;;
14358;SDS011;7263;49.418;11.064;2022-09-25T00:51:28;25.87;;;23.17;;
14358;SDS011;7263;49.418;11.064;2022-09-25T00:54:01;25.50;;;22.20;;
14358;SDS011;7263;49.418;11.064;2022-09-25T00:56:32;25.87;;;23.07;;
14358;SDS011;7263;49.418;11.064;2022-09-25T00:59:06;27.33;;;23.83;;
14358;SDS011;7263;49.418;11.064;2022-09-25T01:01:36;25.10;;;21.93;;
14358;SDS011;7263;49.418;11.064;2022-09-25T01:04:03;26.80;;;23.33;;
14358;SDS011;7263;49.418;11.064;2022-09-25T01:06:31;25.40;;;22.20;;
14358;SDS011;7263;49.418;11.064;2022-09-25T01:08:58;25.43;;;22.70;;
14358;SDS011;7263;49.418;11.064;2022-09-25T01:11:25;25.97;;;23.20;;
14358;SDS011;7263;49.418;11.064;2022-09-25T01:13:52;24.70;;;21.90;;
14358;SDS011;7263;49.418;11.064;2022-09-25T01:16:25;23.50;;;21.00;;
14358;SDS011;7263;49.418;11.064;2022-09-25T01:19:00;25.70;;;22.13;;
14358;SDS011;7263;49.418;11.064;2022-09-25T01:21:38;25.40;;;22.70;;
14358;SDS011;7263;49.418;11.064;2022-09-25T01:27:22;24.73;;;22.13;;
14358;SDS011;7263;49.418;11.064;2022-09-25T01:30:00;25.80;;;22.50;;
14358;SDS011;7263;49.418;11.064;2022-09-25T01:32:35;24.03;;;21.57;;
14358;SDS011;7263;49.418;11.064;2022-09-25T01:35:14;26.53;;;23.63;;
14358;SDS011;7263;49.418;11.064;2022-09-25T01:37:49;25.83;;;23.03;;
14358;SDS011;7263;49.418;11.064;2022-09-25T01:40:24;23.40;;;21.00;;
14358;SDS011;7263;49.418;11.064;2022-09-25T01:42:58;25.20;;;22.43;;
14358;SDS011;7263;49.418;11.064;2022-09-25T01:45:35;27.50;;;22.83;;
14358;SDS011;7263;49.418;11.064;2022-09-25T01:48:08;24.73;;;22.00;;
14358;SDS011;7263;49.418;11.064;2022-09-25T01:50:39;27.30;;;22.30;;
14358;SDS011;7263;49.418;11.064;2022-09-25T01:53:11;25.07;;;21.40;;
14358;SDS011;7263;49.418;11.064;2022-09-25T01:55:42;24.70;;;22.10;;
14358;SDS011;7263;49.418;11.064;2022-09-25T01:58:13;27.57;;;22.20;;
14358;SDS011;7263;49.418;11.064;2022-09-25T02:00:46;24.83;;;22.13;;
14358;SDS011;7263;49.418;11.064;2022-09-25T02:03:17;27.10;;;23.73;;
14358;SDS011;7263;49.418;11.064;2022-09-25T02:05:55;27.43;;;22.50;;
14358;SDS011;7263;49.418;11.064;2022-09-25T02:08:24;26.20;;;22.43;;
14358;SDS011;7263;49.418;11.064;2022-09-25T02:10:54;24.87;;;22.17;;
14358;SDS011;7263;49.418;11.064;2022-09-25T02:13:26;25.53;;;22.80;;
14358;SDS011;7263;49.418;11.064;2022-09-25T02:16:01;26.87;;;23.10;;
14358;SDS011;7263;49.418;11.064;2022-09-25T02:18:30;24.20;;;21.27;;
14358;SDS011;7263;49.418;11.064;2022-09-25T02:21:16;25.00;;;22.40;;
14358;SDS011;7263;49.418;11.064;2022-09-25T02:23:52;24.80;;;21.70;;
14358;SDS011;7263;49.418;11.064;2022-09-25T02:26:23;25.93;;;23.13;;
14358;SDS011;7263;49.418;11.064;2022-09-25T02:28:53;24.73;;;22.10;;
14358;SDS011;7263;49.418;11.064;2022-09-25T02:31:24;24.77;;;22.10;;
14358;SDS011;7263;49.418;11.064;2022-09-25T02:33:55;24.77;;;22.20;;
14358;SDS011;7263;49.418;11.064;2022-09-25T02:36:22;26.17;;;22.23;;
14358;SDS011;7263;49.418;11.064;2022-09-25T02:38:49;23.03;;;20.63;;
14358;SDS011;7263;49.418;11.064;2022-09-25T02:41:21;23.83;;;21.33;;
14358;SDS011;7263;49.418;11.064;2022-09-25T02:44:13;24.43;;;21.93;;
14358;SDS011;7263;49.418;11.064;2022-09-25T02:46:50;24.93;;;22.23;;
14358;SDS011;7263;49.418;11.064;2022-09-25T02:49:27;26.40;;;21.27;;
14358;SDS011;7263;49.418;11.064;2022-09-25T02:52:02;25.03;;;22.37;;
14358;SDS011;7263;49.418;11.064;2022-09-25T02:54:36;23.40;;;20.97;;
14358;SDS011;7263;49.418;11.064;2022-09-25T02:57:11;25.43;;;22.10;;
14358;SDS011;7263;49.418;11.064;2022-09-25T02:59:41;24.37;;;21.77;;
14358;SDS011;7263;49.418;11.064;2022-09-25T03:02:14;23.30;;;20.87;;
14358;SDS011;7263;49.418;11.064;2022-09-25T03:04:42;26.80;;;21.73;;
14358;SDS011;7263;49.418;11.064;2022-09-25T03:07:11;24.00;;;21.23;;
14358;SDS011;7263;49.418;11.064;2022-09-25T03:09:38;25.43;;;20.90;;
14358;SDS011;7263;49.418;11.064;2022-09-25T03:12:11;23.57;;;21.00;;
14358;SDS011;7263;49.418;11.064;2022-09-25T03:14:38;25.93;;;23.13;;
14358;SDS011;7263;49.418;11.064;2022-09-25T03:17:05;29.83;;;22.80;;
14358;SDS011;7263;49.418;11.064;2022-09-25T03:19:35;26.10;;;21.67;;
14358;SDS011;7263;49.418;11.064;2022-09-25T03:22:02;27.60;;;22.83;;
14358;SDS011;7263;49.418;11.064;2022-09-25T03:24:29;26.83;;;23.10;;
14358;SDS011;7263;49.418;11.064;2022-09-25T03:26:56;26.20;;;21.90;;
14358;SDS011;7263;49.418;11.064;2022-09-25T03:29:23;27.83;;;21.73;;
14358;SDS011;7263;49.418;11.064;2022-09-25T03:31:50;28.43;;;22.93;;
14358;SDS011;7263;49.418;11.064;2022-09-25T03:34:17;24.70;;;21.40;;
14358;SDS011;7263;49.418;11.064;2022-09-25T03:36:45;27.60;;;22.37;;
14358;SDS011;7263;49.418;11.064;2022-09-25T03:39:13;27.47;;;22.10;;
14358;SDS011;7263;49.418;11.064;2022-09-25T03:41:41;31.13;;;23.23;;
14358;SDS011;7263;49.418;11.064;2022-09-25T03:44:09;26.43;;;21.53;;
14358;SDS011;7263;49.418;11.064;2022-09-25T03:46:35;28.40;;;23.50;;
14358;SDS011;7263;49.418;11.064;2022-09-25T03:49:02;32.87;;;24.63;;
14358;SDS011;7263;49.418;11.064;2022-09-25T03:51:30;29.03;;;22.50;;
14358;SDS011;7263;49.418;11.064;2022-09-25T03:53:59;29.73;;;23.50;;
14358;SDS011;7263;49.418;11.064;2022-09-25T03:56:28;30.83;;;23.10;;
14358;SDS011;7263;49.418;11.064;2022-09-25T03:58:55;32.87;;;23.37;;
14358;SDS011;7263;49.418;11.064;2022-09-25T04:01:23;29.27;;;23.00;;
14358;SDS011;7263;49.418;11.064;2022-09-25T04:03:51;33.83;;;23.73;;
14358;SDS011;7263;49.418;11.064;2022-09-25T04:06:19;31.67;;;24.77;;
14358;SDS011;7263;49.418;11.064;2022-09-25T04:08:48;33.10;;;22.87;;
14358;SDS011;7263;49.418;11.064;2022-09-25T04:11:17;32.37;;;23.23;;
14358;SDS011;7263;49.418;11.064;2022-09-25T04:13:45;30.87;;;23.27;;
14358;SDS011;7263;49.418;11.064;2022-09-25T04:16:12;34.27;;;23.70;;
14358;SDS011;7263;49.418;11.064;2022-09-25T04:18:40;33.73;;;23.43;;
14358;SDS011;7263;49.418;11.064;2022-09-25T04:21:09;32.17;;;23.87;;
14358;SDS011;7263;49.418;11.064;2022-09-25T04:23:37;33.53;;;24.07;;
14358;SDS011;7263;49.418;11.064;2022-09-25T04:26:04;35.90;;;24.53;;
14358;SDS011;7263;49.418;11.064;2022-09-25T04:28:33;36.30;;;26.97;;
14358;SDS011;7263;49.418;11.064;2022-09-25T04:31:00;34.90;;;24.63;;
14358;SDS011;7263;49.418;11.064;2022-09-25T04:33:27;33.70;;;24.50;;
14358;SDS011;7263;49.418;11.064;2022-09-25T04:36:12;34.27;;;24.37;;
14358;SDS011;7263;49.418;11.064;2022-09-25T04:38:39;36.03;;;24.10;;
14358;SDS011;7263;49.418;11.064;2022-09-25T04:41:06;34.97;;;24.27;;
14358;SDS011;7263;49.418;11.064;2022-09-25T04:43:34;37.83;;;25.47;;
14358;SDS011;7263;49.418;11.064;2022-09-25T04:46:01;37.20;;;24.77;;
14358;SDS011;7263;49.418;11.064;2022-09-25T04:48:29;37.03;;;25.00;;
14358;SDS011;7263;49.418;11.064;2022-09-25T04:50:56;34.10;;;23.87;;
14358;SDS011;7263;49.418;11.064;2022-09-25T04:53:23;35.30;;;24.03;;
14358;SDS011;7263;49.418;11.064;2022-09-25T04:55:51;32.67;;;25.00;;
14358;SDS011;7263;49.418;11.064;2022-09-25T04:58:20;33.13;;;24.33;;
14358;SDS011;7263;49.418;11.064;2022-09-25T05:00:48;37.23;;;25.77;;
14358;SDS011;7263;49.418;11.064;2022-09-25T05:03:15;36.33;;;24.93;;
14358;SDS011;7263;49.418;11.064;2022-09-25T05:05:42;36.10;;;25.90;;
14358;SDS011;7263;49.418;11.064;2022-09-25T05:08:09;38.80;;;25.70;;
14358;SDS011;7263;49.418;11.064;2022-09-25T05:10:36;38.87;;;26.67;;
14358;SDS011;7263;49.418;11.064;2022-09-25T05:13:05;38.13;;;25.87;;
14358;SDS011;7263;49.418;11.064;2022-09-25T05:15:34;44.67;;;26.97;;
14358;SDS011;7263;49.418;11.064;2022-09-25T05:18:03;38.23;;;26.93;;
14358;SDS011;7263;49.418;11.064;2022-09-25T05:20:31;39.93;;;26.67;;
14358;SDS011;7263;49.418;11.064;2022-09-25T05:22:59;40.03;;;26.83;;
14358;SDS011;7263;49.418;11.064;2022-09-25T05:25:28;39.63;;;25.53;;
14358;SDS011;7263;49.418;11.064;2022-09-25T05:27:56;38.73;;;26.40;;
14358;SDS011;7263;49.418;11.064;2022-09-25T05:30:24;38.17;;;25.43;;
14358;SDS011;7263;49.418;11.064;2022-09-25T05:32:52;39.30;;;25.93;;
14358;SDS011;7263;49.418;11.064;2022-09-25T05:35:24;41.37;;;25.27;;
14358;SDS011;7263;49.418;11.064;2022-09-25T05:37:52;42.10;;;26.67;;
14358;SDS011;7263;49.418;11.064;2022-09-25T05:40:18;39.63;;;25.77;;
14358;SDS011;7263;49.418;11.064;2022-09-25T05:42:46;45.73;;;27.90;;
14358;SDS011;7263;49.418;11.064;2022-09-25T05:45:13;41.87;;;27.00;;
14358;SDS011;7263;49.418;11.064;2022-09-25T05:47:40;46.20;;;26.43;;
14358;SDS011;7263;49.418;11.064;2022-09-25T05:50:09;39.43;;;25.97;;
14358;SDS011;7263;49.418;11.064;2022-09-25T05:52:39;41.00;;;25.67;;
14358;SDS011;7263;49.418;11.064;2022-09-25T05:55:06;43.03;;;26.27;;
14358;SDS011;7263;49.418;11.064;2022-09-25T05:57:34;42.13;;;26.47;;
14358;SDS011;7263;49.418;11.064;2022-09-25T06:00:03;41.23;;;26.27;;
14358;SDS011;7263;49.418;11.064;2022-09-25T06:02:31;42.40;;;26.70;;
14358;SDS011;7263;49.418;11.064;2022-09-25T06:04:58;44.33;;;26.47;;
14358;SDS011;7263;49.418;11.064;2022-09-25T06:07:25;37.20;;;24.53;;
14358;SDS011;7263;49.418;11.064;2022-09-25T06:09:54;42.77;;;26.40;;
14358;SDS011;7263;49.418;11.064;2022-09-25T06:12:20;40.57;;;25.33;;
14358;SDS011;7263;49.418;11.064;2022-09-25T06:14:48;41.80;;;24.57;;
14358;SDS011;7263;49.418;11.064;2022-09-25T06:17:16;37.23;;;24.23;;
14358;SDS011;7263;49.418;11.064;2022-09-25T06:19:43;44.07;;;25.70;;
14358;SDS011;7263;49.418;11.064;2022-09-25T06:22:10;41.17;;;24.33;;
14358;SDS011;7263;49.418;11.064;2022-09-25T06:24:36;44.80;;;26.83;;
14358;SDS011;7263;49.418;11.064;2022-09-25T06:27:05;39.30;;;24.07;;
14358;SDS011;7263;49.418;11.064;2022-09-25T06:29:33;39.83;;;25.67;;
14358;SDS011;7263;49.418;11.064;2022-09-25T06:32:00;41.07;;;24.40;;
14358;SDS011;7263;49.418;11.064;2022-09-25T06:34:27;43.17;;;25.63;;
14358;SDS011;7263;49.418;11.064;2022-09-25T06:36:54;41.47;;;23.50;;
14358;SDS011;7263;49.418;11.064;2022-09-25T06:39:21;44.07;;;25.10;;
14358;SDS011;7263;49.418;11.064;2022-09-25T06:41:50;39.53;;;24.47;;
14358;SDS011;7263;49.418;11.064;2022-09-25T06:44:18;41.47;;;24.10;;
14358;SDS011;7263;49.418;11.064;2022-09-25T06:46:47;44.30;;;24.17;;
14358;SDS011;7263;49.418;11.064;2022-09-25T06:49:14;38.80;;;23.13;;
14358;SDS011;7263;49.418;11.064;2022-09-25T06:51:41;41.43;;;24.73;;
14358;SDS011;7263;49.418;11.064;2022-09-25T06:54:08;42.20;;;24.10;;
14358;SDS011;7263;49.418;11.064;2022-09-25T06:56:35;35.23;;;21.77;;
14358;SDS011;7263;49.418;11.064;2022-09-25T06:59:01;36.40;;;23.03;;
14358;SDS011;7263;49.418;11.064;2022-09-25T07:01:30;36.97;;;22.77;;
14358;SDS011;7263;49.418;11.064;2022-09-25T07:03:57;33.63;;;21.80;;
14358;SDS011;7263;49.418;11.064;2022-09-25T07:06:24;37.73;;;22.67;;
14358;SDS011;7263;49.418;11.064;2022-09-25T07:08:52;37.00;;;23.40;;
14358;SDS011;7263;49.418;11.064;2022-09-25T07:11:22;36.50;;;22.30;;
14358;SDS011;7263;49.418;11.064;2022-09-25T07:13:50;37.53;;;22.50;;
14358;SDS011;7263;49.418;11.064;2022-09-25T07:16:19;36.93;;;22.67;;
14358;SDS011;7263;49.418;11.064;2022-09-25T07:18:49;40.83;;;23.50;;
14358;SDS011;7263;49.418;11.064;2022-09-25T07:21:18;42.03;;;24.37;;
14358;SDS011;7263;49.418;11.064;2022-09-25T07:23:46;39.33;;;23.73;;
14358;SDS011;7263;49.418;11.064;2022-09-25T07:26:14;41.07;;;24.83;;
14358;SDS011;7263;49.418;11.064;2022-09-25T07:28:46;34.37;;;21.67;;
14358;SDS011;7263;49.418;11.064;2022-09-25T07:31:15;39.73;;;24.47;;
14358;SDS011;7263;49.418;11.064;2022-09-25T07:33:44;36.83;;;22.40;;
14358;SDS011;7263;49.418;11.064;2022-09-25T07:36:13;33.80;;;21.63;;
14358;SDS011;7263;49.418;11.064;2022-09-25T07:38:40;31.30;;;20.63;;
14358;SDS011;7263;49.418;11.064;2022-09-25T07:41:08;35.63;;;21.27;;
14358;SDS011;7263;49.418;11.064;2022-09-25T07:43:37;33.27;;;22.23;;
14358;SDS011;7263;49.418;11.064;2022-09-25T07:46:04;33.83;;;21.13;;
14358;SDS011;7263;49.418;11.064;2022-09-25T07:48:32;30.67;;;19.93;;
14358;SDS011;7263;49.418;11.064;2022-09-25T07:50:59;26.43;;;19.20;;
14358;SDS011;7263;49.418;11.064;2022-09-25T07:53:27;26.30;;;19.10;;
14358;SDS011;7263;49.418;11.064;2022-09-25T07:55:55;28.63;;;19.17;;
14358;SDS011;7263;49.418;11.064;2022-09-25T07:58:23;25.20;;;18.37;;
14358;SDS011;7263;49.418;11.064;2022-09-25T08:00:50;27.53;;;18.87;;
14358;SDS011;7263;49.418;11.064;2022-09-25T08:03:18;25.13;;;18.00;;
14358;SDS011;7263;49.418;11.064;2022-09-25T08:05:45;25.10;;;17.57;;
14358;SDS011;7263;49.418;11.064;2022-09-25T08:08:12;25.93;;;18.40;;
14358;SDS011;7263;49.418;11.064;2022-09-25T08:10:40;26.70;;;19.23;;
14358;SDS011;7263;49.418;11.064;2022-09-25T08:13:07;25.73;;;19.03;;
14358;SDS011;7263;49.418;11.064;2022-09-25T08:15:33;24.43;;;18.50;;
14358;SDS011;7263;49.418;11.064;2022-09-25T08:18:00;27.13;;;18.80;;
14358;SDS011;7263;49.418;11.064;2022-09-25T08:20:27;28.13;;;19.20;;
14358;SDS011;7263;49.418;11.064;2022-09-25T08:22:54;24.73;;;18.50;;
14358;SDS011;7263;49.418;11.064;2022-09-25T08:25:21;25.80;;;18.27;;
14358;SDS011;7263;49.418;11.064;2022-09-25T08:27:49;25.90;;;17.70;;
14358;SDS011;7263;49.418;11.064;2022-09-25T08:30:16;23.80;;;18.13;;
14358;SDS011;7263;49.418;11.064;2022-09-25T08:32:43;21.63;;;17.67;;
14358;SDS011;7263;49.418;11.064;2022-09-25T08:35:10;22.17;;;16.70;;
14358;SDS011;7263;49.418;11.064;2022-09-25T08:37:40;19.33;;;15.83;;
14358;SDS011;7263;49.418;11.064;2022-09-25T08:40:11;20.40;;;16.23;;
14358;SDS011;7263;49.418;11.064;2022-09-25T08:42:43;18.90;;;15.67;;
14358;SDS011;7263;49.418;11.064;2022-09-25T08:45:18;19.33;;;16.17;;
14358;SDS011;7263;49.418;11.064;2022-09-25T08:48:08;17.80;;;15.57;;
14358;SDS011;7263;49.418;11.064;2022-09-25T08:50:59;18.10;;;14.33;;
14358;SDS011;7263;49.418;11.064;2022-09-25T08:53:29;17.63;;;14.87;;
14358;SDS011;7263;49.418;11.064;2022-09-25T08:55:57;16.90;;;14.03;;
14358;SDS011;7263;49.418;11.064;2022-09-25T08:58:41;18.47;;;14.20;;
14358;SDS011;7263;49.418;11.064;2022-09-25T09:01:12;18.10;;;15.23;;
14358;SDS011;7263;49.418;11.064;2022-09-25T09:03:43;17.17;;;14.20;;
14358;SDS011;7263;49.418;11.064;2022-09-25T09:06:14;16.77;;;14.17;;
14358;SDS011;7263;49.418;11.064;2022-09-25T09:08:42;19.03;;;14.07;;
14358;SDS011;7263;49.418;11.064;2022-09-25T09:11:14;19.20;;;16.07;;
14358;SDS011;7263;49.418;11.064;2022-09-25T09:13:45;16.77;;;14.90;;
14358;SDS011;7263;49.418;11.064;2022-09-25T09:16:19;18.27;;;14.20;;
14358;SDS011;7263;49.418;11.064;2022-09-25T09:22:15;16.17;;;14.43;;
14358;SDS011;7263;49.418;11.064;2022-09-25T09:24:53;21.50;;;17.37;;
14358;SDS011;7263;49.418;11.064;2022-09-25T09:27:30;16.87;;;14.60;;
14358;SDS011;7263;49.418;11.064;2022-09-25T09:30:09;19.63;;;14.13;;
14358;SDS011;7263;49.418;11.064;2022-09-25T09:32:44;17.27;;;14.43;;
14358;SDS011;7263;49.418;11.064;2022-09-25T09:35:23;16.57;;;13.47;;
14358;SDS011;7263;49.418;11.064;2022-09-25T09:37:59;18.67;;;16.10;;
14358;SDS011;7263;49.418;11.064;2022-09-25T09:40:38;18.43;;;15.53;;
14358;SDS011;7263;49.418;11.064;2022-09-25T09:43:19;14.77;;;13.20;;
14358;SDS011;7263;49.418;11.064;2022-09-25T09:45:55;14.30;;;12.60;;
14358;SDS011;7263;49.418;11.064;2022-09-25T09:48:29;13.73;;;12.30;;
14358;SDS011;7263;49.418;11.064;2022-09-25T09:51:04;13.73;;;12.03;;
14358;SDS011;7263;49.418;11.064;2022-09-25T09:53:37;11.47;;;10.23;;
14358;SDS011;7263;49.418;11.064;2022-09-25T09:56:09;12.43;;;11.13;;
14358;SDS011;7263;49.418;11.064;2022-09-25T09:58:41;11.07;;;9.87;;
14358;SDS011;7263;49.418;11.064;2022-09-25T10:01:12;11.40;;;10.20;;
14358;SDS011;7263;49.418;11.064;2022-09-25T10:03:41;11.13;;;9.10;;
14358;SDS011;7263;49.418;11.064;2022-09-25T10:06:10;10.50;;;9.40;;
14358;SDS011;7263;49.418;11.064;2022-09-25T10:08:39;11.27;;;9.27;;
14358;SDS011;7263;49.418;11.064;2022-09-25T10:11:08;11.93;;;9.25;;
14358;SDS011;7263;49.418;11.064;2022-09-25T10:13:39;9.90;;;8.90;;
14358;SDS011;7263;49.418;11.064;2022-09-25T10:16:09;9.10;;;7.95;;
14358;SDS011;7263;49.418;11.064;2022-09-25T10:18:39;8.98;;;8.07;;
14358;SDS011;7263;49.418;11.064;2022-09-25T10:21:12;8.35;;;7.55;;
14358;SDS011;7263;49.418;11.064;2022-09-25T10:23:46;9.50;;;7.47;;
14358;SDS011;7263;49.418;11.064;2022-09-25T10:26:21;8.65;;;7.78;;
14358;SDS011;7263;49.418;11.064;2022-09-25T10:28:50;7.50;;;6.80;;
14358;SDS011;7263;49.418;11.064;2022-09-25T10:31:21;8.45;;;7.13;;
14358;SDS011;7263;49.418;11.064;2022-09-25T10:33:58;7.10;;;6.47;;
14358;SDS011;7263;49.418;11.064;2022-09-25T10:36:34;6.70;;;6.00;;
14358;SDS011;7263;49.418;11.064;2022-09-25T10:39:04;7.10;;;6.40;;
14358;SDS011;7263;49.418;11.064;2022-09-25T10:41:49;8.05;;;7.30;;
14358;SDS011;7263;49.418;11.064;2022-09-25T10:44:21;8.07;;;7.15;;
14358;SDS011;7263;49.418;11.064;2022-09-25T10:50:15;8.55;;;7.72;;
14358;SDS011;7263;49.418;11.064;2022-09-25T10:52:45;8.40;;;7.60;;
14358;SDS011;7263;49.418;11.064;2022-09-25T10:55:21;7.18;;;6.47;;
14358;SDS011;7263;49.418;11.064;2022-09-25T10:57:55;8.82;;;7.22;;
14358;SDS011;7263;49.418;11.064;2022-09-25T11:00:27;8.68;;;7.75;;
14358;SDS011;7263;49.418;11.064;2022-09-25T11:02:55;7.85;;;7.05;;
14358;SDS011;7263;49.418;11.064;2022-09-25T11:05:27;7.03;;;6.03;;
14358;SDS011;7263;49.418;11.064;2022-09-25T11:07:58;6.35;;;5.75;;
14358;SDS011;7263;49.418;11.064;2022-09-25T11:10:28;6.10;;;5.60;;
14358;SDS011;7263;49.418;11.064;2022-09-25T11:12:58;6.72;;;6.03;;
14358;SDS011;7263;49.418;11.064;2022-09-25T11:15:29;6.72;;;6.13;;
14358;SDS011;7263;49.418;11.064;2022-09-25T11:17:55;6.97;;;6.22;;
14358;SDS011;7263;49.418;11.064;2022-09-25T11:20:25;6.60;;;5.85;;
14358;SDS011;7263;49.418;11.064;2022-09-25T11:22:57;5.63;;;5.05;;
14358;SDS011;7263;49.418;11.064;2022-09-25T11:25:47;5.32;;;4.82;;
14358;SDS011;7263;49.418;11.064;2022-09-25T11:28:20;5.13;;;4.63;;
14358;SDS011;7263;49.418;11.064;2022-09-25T11:30:54;4.40;;;4.00;;
14358;SDS011;7263;49.418;11.064;2022-09-25T11:33:29;3.80;;;3.50;;
14358;SDS011;7263;49.418;11.064;2022-09-25T11:36:08;4.72;;;4.20;;
14358;SDS011;7263;49.418;11.064;2022-09-25T11:38:42;5.22;;;4.75;;
14358;SDS011;7263;49.418;11.064;2022-09-25T11:41:31;12.45;;;11.40;;
14358;SDS011;7263;49.418;11.064;2022-09-25T11:44:12;5.82;;;3.65;;
14358;SDS011;7263;49.418;11.064;2022-09-25T11:46:48;4.20;;;3.90;;
14358;SDS011;7263;49.418;11.064;2022-09-25T11:49:21;4.43;;;4.03;;
14358;SDS011;7263;49.418;11.064;2022-09-25T11:57:58;5.07;;;4.55;;
14358;SDS011;7263;49.418;11.064;2022-09-25T12:00:34;5.53;;;3.72;;
14358;SDS011;7263;49.418;11.064;2022-09-25T12:03:11;6.25;;;5.75;;
14358;SDS011;7263;49.418;11.064;2022-09-25T12:05:56;5.25;;;4.75;;
14358;SDS011;7263;49.418;11.064;2022-09-25T12:08:44;6.40;;;5.80;;
14358;SDS011;7263;49.418;11.064;2022-09-25T12:11:23;5.83;;;5.33;;
14358;SDS011;7263;49.418;11.064;2022-09-25T12:14:02;5.77;;;5.27;;
14358;SDS011;7263;49.418;11.064;2022-09-25T12:16:39;6.33;;;5.73;;
14358;SDS011;7263;49.418;11.064;2022-09-25T12:19:13;7.73;;;6.10;;
14358;SDS011;7263;49.418;11.064;2022-09-25T12:21:50;6.57;;;5.97;;
14358;SDS011;7263;49.418;11.064;2022-09-25T12:24:28;6.50;;;5.90;;
14358;SDS011;7263;49.418;11.064;2022-09-25T12:27:04;7.90;;;7.10;;
14358;SDS011;7263;49.418;11.064;2022-09-25T12:29:40;8.30;;;6.37;;
14358;SDS011;7263;49.418;11.064;2022-09-25T12:32:19;7.60;;;6.90;;
14358;SDS011;7263;49.418;11.064;2022-09-25T12:35:01;6.40;;;5.80;;
14358;SDS011;7263;49.418;11.064;2022-09-25T12:37:37;7.17;;;6.47;;
14358;SDS011;7263;49.418;11.064;2022-09-25T12:40:12;6.33;;;5.73;;
14358;SDS011;7263;49.418;11.064;2022-09-25T12:42:48;6.10;;;5.50;;
14358;SDS011;7263;49.418;11.064;2022-09-25T12:45:20;5.90;;;5.40;;
14358;SDS011;7263;49.418;11.064;2022-09-25T12:47:58;5.27;;;4.80;;
14358;SDS011;7263;49.418;11.064;2022-09-25T12:50:32;5.43;;;4.93;;
14358;SDS011;7263;49.418;11.064;2022-09-25T12:53:04;5.23;;;4.73;;
14358;SDS011;7263;49.418;11.064;2022-09-25T12:55:45;4.83;;;3.90;;
14358;SDS011;7263;49.418;11.064;2022-09-25T12:58:17;5.00;;;4.50;;
14358;SDS011;7263;49.418;11.064;2022-09-25T13:00:51;4.72;;;4.32;;
14358;SDS011;7263;49.418;11.064;2022-09-25T13:03:25;5.17;;;4.73;;
14358;SDS011;7263;49.418;11.064;2022-09-25T13:06:02;4.85;;;4.45;;
14358;SDS011;7263;49.418;11.064;2022-09-25T13:08:36;4.43;;;4.03;;
14358;SDS011;7263;49.418;11.064;2022-09-25T13:11:11;3.93;;;3.00;;
14358;SDS011;7263;49.418;11.064;2022-09-25T13:13:43;6.13;;;5.60;;
14358;SDS011;7263;49.418;11.064;2022-09-25T13:16:14;7.80;;;6.40;;
14358;SDS011;7263;49.418;11.064;2022-09-25T13:18:45;6.17;;;5.57;;
14358;SDS011;7263;49.418;11.064;2022-09-25T13:21:23;6.17;;;5.57;;
14358;SDS011;7263;49.418;11.064;2022-09-25T13:23:51;4.67;;;4.27;;
14358;SDS011;7263;49.418;11.064;2022-09-25T13:26:21;4.07;;;3.67;;
14358;SDS011;7263;49.418;11.064;2022-09-25T13:28:51;3.23;;;2.93;;
14358;SDS011;7263;49.418;11.064;2022-09-25T13:31:21;3.67;;;3.37;;
14358;SDS011;7263;49.418;11.064;2022-09-25T13:33:51;4.37;;;3.30;;
14358;SDS011;7263;49.418;11.064;2022-09-25T13:36:34;4.27;;;3.53;;
14358;SDS011;7263;49.418;11.064;2022-09-25T13:39:05;8.53;;;6.27;;
14358;SDS011;7263;49.418;11.064;2022-09-25T13:42:00;12.83;;;6.70;;
14358;SDS011;7263;49.418;11.064;2022-09-25T13:47:48;5.87;;;3.77;;
14358;SDS011;7263;49.418;11.064;2022-09-25T13:50:23;5.73;;;4.53;;
14358;SDS011;7263;49.418;11.064;2022-09-25T13:56:04;6.93;;;5.93;;
14358;SDS011;7263;49.418;11.064;2022-09-25T13:59:00;6.87;;;5.73;;
14358;SDS011;7263;49.418;11.064;2022-09-25T14:01:43;5.77;;;5.20;;
14358;SDS011;7263;49.418;11.064;2022-09-25T14:04:15;5.60;;;4.83;;
14358;SDS011;7263;49.418;11.064;2022-09-25T14:06:50;5.17;;;4.67;;
14358;SDS011;7263;49.418;11.064;2022-09-25T14:09:21;4.73;;;4.33;;
14358;SDS011;7263;49.418;11.064;2022-09-25T14:11:54;4.93;;;4.43;;
14358;SDS011;7263;49.418;11.064;2022-09-25T14:14:31;4.73;;;3.37;;
14358;SDS011;7263;49.418;11.064;2022-09-25T14:17:01;6.50;;;5.90;;
14358;SDS011;7263;49.418;11.064;2022-09-25T14:19:31;5.30;;;4.73;;
14358;SDS011;7263;49.418;11.064;2022-09-25T14:22:03;5.97;;;5.07;;
14358;SDS011;7263;49.418;11.064;2022-09-25T14:24:30;3.63;;;3.33;;
14358;SDS011;7263;49.418;11.064;2022-09-25T14:26:59;4.63;;;3.47;;
14358;SDS011;7263;49.418;11.064;2022-09-25T14:29:30;4.00;;;3.50;;
14358;SDS011;7263;49.418;11.064;2022-09-25T14:32:07;6.23;;;5.60;;
14358;SDS011;7263;49.418;11.064;2022-09-25T14:34:46;4.30;;;3.83;;
14358;SDS011;7263;49.418;11.064;2022-09-25T14:37:26;4.40;;;3.60;;
14358;SDS011;7263;49.418;11.064;2022-09-25T14:40:10;5.10;;;4.10;;
14358;SDS011;7263;49.418;11.064;2022-09-25T14:42:47;9.07;;;7.60;;
14358;SDS011;7263;49.418;11.064;2022-09-25T14:45:41;5.97;;;4.97;;
14358;SDS011;7263;49.418;11.064;2022-09-25T14:48:23;7.10;;;6.40;;
14358;SDS011;7263;49.418;11.064;2022-09-25T14:50:54;4.33;;;3.90;;
14358;SDS011;7263;49.418;11.064;2022-09-25T14:53:25;3.93;;;3.60;;
14358;SDS011;7263;49.418;11.064;2022-09-25T14:55:54;3.77;;;3.47;;
14358;SDS011;7263;49.418;11.064;2022-09-25T14:58:26;3.60;;;3.27;;
14358;SDS011;7263;49.418;11.064;2022-09-25T15:00:58;4.17;;;3.77;;
14358;SDS011;7263;49.418;11.064;2022-09-25T15:03:32;10.20;;;9.20;;
14358;SDS011;7263;49.418;11.064;2022-09-25T15:06:04;4.13;;;3.63;;
14358;SDS011;7263;49.418;11.064;2022-09-25T15:08:33;6.27;;;5.67;;
14358;SDS011;7263;49.418;11.064;2022-09-25T15:11:07;4.83;;;4.23;;
14358;SDS011;7263;49.418;11.064;2022-09-25T15:13:36;5.20;;;4.80;;
14358;SDS011;7263;49.418;11.064;2022-09-25T15:16:05;4.73;;;4.23;;
14358;SDS011;7263;49.418;11.064;2022-09-25T15:18:54;6.43;;;5.17;;